SABE/AEP METAR and TAF weather

Enter ICAO airport designator
Station Type Date Time Source
SABE METAR 2021/09/24 01:00 UTC NOAA

SABE 240100Z 12008KT CAVOK 14/10 Q1023 NOSIG


Station Type Date Time Source
SABE Decoded METAR 2021/09/24 01:00 UTC NOAA

Aeroparque Bs. As. Aerodrome, Argentina (SABE) 34-34S 058-25W 6M
Sep 23, 2021 - 09:00 PM EDT / 2021.09.24 0100 UTC
Wind: from the ESE (120 degrees) at 9 MPH (8 KT):0
Visibility: greater than 7 mile(s):0
Temperature: 57 F (14 C)
Dew Point: 50 F (10 C)
Relative Humidity: 76%
Pressure (altimeter): 30.21 in. Hg (1023 hPa)
ob: SABE 240100Z 12008KT CAVOK 14/10 Q1023 NOSIG
cycle: 1

Station Type Date Time Source
SABE TAF 2021/09/24 00:00 UTC NOAA

TAF SABE 232300Z 2400/2424 11010KT CAVOK TX21/2418Z TN14/2410Z
BECMG 2406/2409 VRB05KT 5000 BR BKN008
BECMG 2412/2414 09010KT 9999 SCT015
BECMG 2416/2418 11015KT CAVOK

Example: see airport list